Time;durP1;ratioP1;P1;durP2;ratioP2;P2;SDS_P1;SDS_P2;PMS_P1;PMS_P2;Temp;Humidity;BMP_temperature;BMP_pressure;BME280_temperature;BME280_humidity;BME280_pressure;Samples;Min_cycle;Max_cycle;Signal;HPM_P1;HPM_P2
2022/01/06 00:01:41;;;;;;;1.92;1.40;;;17.50;63.40;;;;;;5084198;28;20025;-57
2022/01/06 00:04:07;;;;;;;1.75;1.63;;;17.50;63.30;;;;;;5088185;28;20450;-57
2022/01/06 00:06:38;;;;;;;1.70;1.55;;;17.50;63.20;;;;;;5105070;28;20100;-56
2022/01/06 00:09:06;;;;;;;1.60;1.50;;;17.50;63.10;;;;;;5104739;28;20044;-55
2022/01/06 00:11:32;;;;;;;1.90;1.38;;;17.50;63.10;;;;;;5105194;28;20122;-57
2022/01/06 00:14:05;;;;;;;2.20;1.90;;;17.50;63.10;;;;;;5104912;28;20016;-56
2022/01/06 00:16:57;;;;;;;1.95;1.60;;;17.40;63.00;;;;;;5105058;28;20053;-57
2022/01/06 00:24:52;;;;;;;1.70;1.50;;;17.50;63.50;;;;;;5104750;28;20101;-58
2022/01/06 00:27:18;;;;;;;2.40;1.60;;;17.50;63.50;;;;;;5103376;28;20031;-57
2022/01/06 00:29:44;;;;;;;2.10;1.45;;;17.50;63.30;;;;;;5084243;28;20029;-57
2022/01/06 00:32:10;;;;;;;2.13;1.60;;;17.50;63.20;;;;;;5083038;28;20051;-56
2022/01/06 00:34:37;;;;;;;1.50;1.40;;;17.50;63.10;;;;;;5094014;28;20056;-58
2022/01/06 00:37:03;;;;;;;1.77;1.67;;;17.50;63.10;;;;;;5104687;28;20031;-58
2022/01/06 00:39:29;;;;;;;1.85;1.70;;;17.40;63.10;;;;;;5104116;28;20028;-57
2022/01/06 00:41:58;;;;;;;1.75;1.60;;;17.40;63.10;;;;;;5104581;28;20024;-56
2022/01/06 00:44:24;;;;;;;1.92;1.73;;;17.40;63.10;;;;;;5104247;28;20042;-57
2022/01/06 00:46:51;;;;;;;2.17;1.73;;;17.40;63.20;;;;;;5104313;28;20031;-56
2022/01/06 00:49:17;;;;;;;2.05;1.80;;;17.40;63.50;;;;;;5103777;28;20064;-58
2022/01/06 00:51:44;;;;;;;1.75;1.60;;;17.50;63.80;;;;;;5103814;28;20024;-57
2022/01/06 00:54:10;;;;;;;2.10;1.73;;;17.50;63.60;;;;;;5104249;28;20020;-57
2022/01/06 00:56:36;;;;;;;1.52;1.42;;;17.50;63.50;;;;;;5104217;28;20096;-57
2022/01/06 00:59:02;;;;;;;2.08;1.55;;;17.50;63.30;;;;;;5088790;28;20132;-57
2022/01/06 01:01:30;;;;;;;1.85;1.58;;;17.50;63.20;;;;;;5083611;28;20029;-56
2022/01/06 01:03:56;;;;;;;1.77;1.60;;;17.40;63.10;;;;;;5083590;28;20096;-54
2022/01/06 01:06:22;;;;;;;2.45;1.60;;;17.40;63.20;;;;;;5083505;28;20072;-58
2022/01/06 01:08:48;;;;;;;2.28;1.70;;;17.40;63.20;;;;;;5083243;28;20052;-58
2022/01/06 01:11:14;;;;;;;1.50;1.40;;;17.40;63.40;;;;;;5089336;28;20031;-55
2022/01/06 01:13:55;;;;;;;2.10;1.50;;;17.40;63.70;;;;;;5103552;28;20170;-58
2022/01/06 01:16:26;;;;;;;1.38;1.20;;;17.50;63.80;;;;;;5103212;28;20079;-58
2022/01/06 01:18:55;;;;;;;2.55;1.60;;;17.50;63.50;;;;;;5103890;28;20102;-57
2022/01/06 01:21:26;;;;;;;1.40;1.30;;;17.50;63.40;;;;;;5103568;28;20042;-57
2022/01/06 01:23:55;;;;;;;1.60;1.40;;;17.50;63.30;;;;;;5103326;28;20078;-57
2022/01/06 01:26:22;;;;;;;1.70;1.60;;;17.40;63.20;;;;;;5103479;28;20039;-57
2022/01/06 01:28:50;;;;;;;1.40;1.25;;;17.40;63.20;;;;;;5089493;28;20036;-57
2022/01/06 01:33:49;;;;;;;2.30;1.50;;;17.40;63.40;;;;;;5083204;28;20033;-57
2022/01/06 01:36:15;;;;;;;1.70;1.55;;;17.40;63.60;;;;;;5083209;28;20025;-57
2022/01/06 01:38:42;;;;;;;1.70;1.60;;;17.50;63.80;;;;;;5083013;28;20591;-59
2022/01/06 01:41:08;;;;;;;1.95;1.45;;;17.50;63.70;;;;;;5089352;28;20032;-57
2022/01/06 01:43:34;;;;;;;2.20;1.87;;;17.50;63.40;;;;;;5103262;28;20057;-57
2022/01/06 01:46:09;;;;;;;2.50;1.52;;;17.50;63.30;;;;;;5103153;28;20038;-56
2022/01/06 01:48:38;;;;;;;1.67;1.58;;;17.40;63.20;;;;;;5103392;28;20032;-55
2022/01/06 01:51:04;;;;;;;1.60;1.50;;;17.40;63.30;;;;;;5102899;28;20086;-57
2022/01/06 01:53:30;;;;;;;1.50;1.38;;;17.40;63.40;;;;;;5102942;28;20534;-57
2022/01/06 01:55:57;;;;;;;2.33;1.55;;;17.30;63.30;;;;;;5102892;28;20028;-57
2022/01/06 01:58:23;;;;;;;1.73;1.55;;;17.30;63.50;;;;;;5102562;28;20067;-57
2022/01/06 02:00:49;;;;;;;1.80;1.58;;;17.40;63.70;;;;;;5102680;28;20108;-56
2022/01/06 02:03:15;;;;;;;1.70;1.50;;;17.40;63.70;;;;;;5102919;28;20088;-57
2022/01/06 02:05:41;;;;;;;2.15;1.20;;;17.50;63.70;;;;;;5102719;28;20123;-57
2022/01/06 02:08:08;;;;;;;1.90;1.70;;;17.50;63.40;;;;;;5102711;28;20535;-57
2022/01/06 02:10:34;;;;;;;1.88;1.50;;;17.40;63.20;;;;;;5115739;28;20020;-58
2022/01/06 02:13:01;;;;;;;1.95;1.60;;;17.40;63.30;;;;;;5082537;28;20406;-57
2022/01/06 02:15:27;;;;;;;;;;;17.40;63.30;;;;;;5082924;28;20036;-57
2022/01/06 02:17:54;;;;;;;2.28;1.65;;;17.30;63.20;;;;;;5082576;28;19908;-58
2022/01/06 02:20:21;;;;;;;2.03;1.55;;;17.40;63.60;;;;;;5099345;28;20062;-57
2022/01/06 02:22:47;;;;;;;;;;;17.40;63.70;;;;;;5102429;28;20024;-57
2022/01/06 02:25:26;;;;;;;1.88;1.45;;;17.50;63.70;;;;;;5102303;28;19963;-58
2022/01/06 02:27:53;;;;;;;1.85;1.55;;;17.50;63.50;;;;;;5096905;28;20103;-59
2022/01/06 02:30:20;;;;;;;1.55;1.20;;;17.40;63.30;;;;;;5082221;28;20030;-58
2022/01/06 02:32:46;;;;;;;1.60;1.50;;;17.40;63.30;;;;;;5082072;28;20032;-58
2022/01/06 02:35:17;;;;;;;2.33;1.52;;;17.40;63.30;;;;;;5082179;28;20401;-55
2022/01/06 02:37:43;;;;;;;1.80;1.50;;;17.30;63.30;;;;;;5082202;28;20024;-56
2022/01/06 02:40:16;;;;;;;2.08;1.60;;;17.30;63.50;;;;;;5082350;28;20033;-56
2022/01/06 02:42:55;;;;;;;2.30;1.40;;;17.40;63.70;;;;;;5101783;28;20028;-57
2022/01/06 02:45:23;;;;;;;1.80;1.48;;;17.40;63.70;;;;;;5102067;28;20054;-58
2022/01/06 02:47:49;;;;;;;2.22;1.38;;;17.40;63.50;;;;;;5102198;28;20032;-57
2022/01/06 02:50:16;;;;;;;1.85;1.55;;;17.40;63.30;;;;;;5102431;28;20062;-57
2022/01/06 02:52:42;;;;;;;1.83;1.52;;;17.40;63.30;;;;;;5101893;28;20099;-57
2022/01/06 02:55:09;;;;;;;1.98;1.67;;;17.40;63.30;;;;;;5101938;28;20040;-57
2022/01/06 02:57:36;;;;;;;1.77;1.50;;;17.30;63.30;;;;;;5102347;28;20062;-56
2022/01/06 03:00:04;;;;;;;;;;;17.30;63.40;;;;;;5102553;28;20044;-57
2022/01/06 03:02:30;;;;;;;1.60;1.40;;;17.20;63.40;;;;;;5102155;28;19922;-57
2022/01/06 03:04:56;;;;;;;1.25;1.15;;;17.30;63.70;;;;;;5102395;28;20028;-57
2022/01/06 03:07:22;;;;;;;1.50;1.40;;;17.40;63.80;;;;;;5101950;28;20020;-57
2022/01/06 03:09:54;;;;;;;2.28;1.50;;;17.40;63.70;;;;;;5101730;28;20042;-57
2022/01/06 03:12:25;;;;;;;1.52;1.42;;;17.40;63.50;;;;;;5081664;28;20054;-55
2022/01/06 03:14:52;;;;;;;1.67;1.58;;;17.40;63.30;;;;;;5081842;28;20055;-57
2022/01/06 03:17:18;;;;;;;1.98;1.60;;;17.40;63.40;;;;;;5081718;28;20036;-57
2022/01/06 03:19:44;;;;;;;2.38;1.67;;;17.30;63.40;;;;;;5097430;28;20170;-56
2022/01/06 03:22:10;;;;;;;1.60;1.40;;;17.20;63.40;;;;;;5101925;28;20054;-57
2022/01/06 03:24:36;;;;;;;1.60;1.45;;;17.30;63.60;;;;;;5101930;28;20051;-57
2022/01/06 03:27:02;;;;;;;2.40;1.88;;;17.40;63.80;;;;;;5101948;28;20099;-57
2022/01/06 03:29:29;;;;;;;1.75;1.50;;;17.40;63.70;;;;;;5082813;28;20032;-57
2022/01/06 03:31:55;;;;;;;1.77;1.60;;;17.40;63.50;;;;;;5081631;28;20044;-57
2022/01/06 03:34:21;;;;;;;1.83;1.60;;;17.40;63.40;;;;;;5081692;28;20084;-56
2022/01/06 03:36:47;;;;;;;1.88;1.67;;;17.40;63.40;;;;;;5084606;28;20054;-57
2022/01/06 03:39:13;;;;;;;2.15;1.65;;;17.30;63.30;;;;;;5085137;28;20020;-56
2022/01/06 03:41:39;;;;;;;1.83;1.60;;;17.30;63.40;;;;;;5084973;28;20059;-57
2022/01/06 03:44:05;;;;;;;2.00;1.48;;;17.30;63.60;;;;;;5085270;28;20016;-57
2022/01/06 03:46:31;;;;;;;1.80;1.60;;;17.30;63.70;;;;;;5084892;28;20058;-58
2022/01/06 03:48:58;;;;;;;2.20;1.80;;;17.40;63.70;;;;;;5090476;28;20040;-57
2022/01/06 03:51:24;;;;;;;3.05;1.60;;;17.40;63.70;;;;;;5105511;28;20024;-56
2022/01/06 03:53:51;;;;;;;1.70;1.40;;;17.40;63.40;;;;;;5104773;28;20136;-57
2022/01/06 03:56:17;;;;;;;1.67;1.58;;;17.40;64.00;;;;;;5105182;28;20028;-56
2022/01/06 03:58:44;;;;;;;1.95;1.83;;;17.30;63.40;;;;;;5098340;28;20028;-57
2022/01/06 04:01:11;;;;;;;2.78;1.55;;;17.30;63.30;;;;;;5105015;28;20489;-57
2022/01/06 04:03:37;;;;;;;2.00;1.80;;;17.20;63.30;;;;;;5104993;28;20404;-56
2022/01/06 04:06:04;;;;;;;1.77;1.60;;;17.30;63.60;;;;;;5105115;28;20024;-57
2022/01/06 04:08:30;;;;;;;;;;;17.40;63.70;;;;;;5105262;28;20059;-57
2022/01/06 04:10:56;;;;;;;1.45;1.35;;;17.40;63.60;;;;;;5104868;28;19930;-57
2022/01/06 04:13:23;;;;;;;1.95;1.58;;;17.40;63.40;;;;;;5104576;28;20051;-57
2022/01/06 04:15:50;;;;;;;2.00;1.55;;;17.40;63.30;;;;;;5104762;28;20028;-57
2022/01/06 04:18:16;;;;;;;2.05;1.50;;;17.40;63.30;;;;;;5104566;28;20127;-57
2022/01/06 04:20:42;;;;;;;3.17;1.60;;;17.30;63.40;;;;;;5104732;28;20770;-56
2022/01/06 04:23:08;;;;;;;2.50;2.00;;;17.20;63.30;;;;;;5104351;28;20032;-58
2022/01/06 04:25:34;;;;;;;1.92;1.60;;;17.20;63.50;;;;;;5104476;28;20031;-57
2022/01/06 04:28:00;;;;;;;1.60;1.40;;;17.30;63.60;;;;;;5103808;28;20069;-58
2022/01/06 04:30:27;;;;;;;1.70;1.60;;;17.40;63.60;;;;;;5104002;28;20095;-57
2022/01/06 04:32:53;;;;;;;1.50;1.40;;;17.40;63.60;;;;;;5104489;28;20028;-57
2022/01/06 04:35:19;;;;;;;3.45;1.70;;;17.40;63.30;;;;;;5104282;28;20173;-56
2022/01/06 04:37:45;;;;;;;1.90;1.42;;;17.40;63.30;;;;;;5104100;28;20020;-58
2022/01/06 04:40:12;;;;;;;2.40;1.90;;;17.30;63.20;;;;;;5104438;28;20043;-58
2022/01/06 04:42:38;;;;;;;2.00;1.80;;;17.30;63.30;;;;;;5104123;28;20036;-57
2022/01/06 04:45:05;;;;;;;2.00;1.60;;;17.20;63.40;;;;;;5103901;28;20035;-57
2022/01/06 04:47:31;;;;;;;2.20;1.70;;;17.30;63.60;;;;;;5103961;28;20047;-57
2022/01/06 04:49:57;;;;;;;1.90;1.70;;;17.30;63.50;;;;;;5104139;28;20032;-58
2022/01/06 04:52:23;;;;;;;1.98;1.75;;;17.40;63.60;;;;;;5104530;28;20020;-58
2022/01/06 04:54:49;;;;;;;2.13;1.92;;;17.40;63.30;;;;;;5103328;28;20802;-56
2022/01/06 04:57:15;;;;;;;1.92;1.50;;;17.40;63.20;;;;;;5103434;28;20067;-57
2022/01/06 04:59:41;;;;;;;1.80;1.70;;;17.30;63.20;;;;;;5103850;28;20568;-57
2022/01/06 05:02:08;;;;;;;3.25;2.00;;;17.30;63.30;;;;;;5104019;28;20028;-57
2022/01/06 05:04:34;;;;;;;2.10;1.80;;;17.20;63.30;;;;;;5103792;28;20467;-57
2022/01/06 05:07:00;;;;;;;1.98;1.77;;;17.30;63.60;;;;;;5103995;28;20024;-58
2022/01/06 05:09:26;;;;;;;1.92;1.58;;;17.40;63.60;;;;;;5103500;28;20591;-57
2022/01/06 05:11:52;;;;;;;2.58;2.03;;;17.40;63.50;;;;;;5102009;28;20087;-57
2022/01/06 05:14:18;;;;;;;2.15;1.85;;;17.40;63.20;;;;;;5103241;28;20683;-57
2022/01/06 05:16:44;;;;;;;2.20;1.70;;;17.40;63.10;;;;;;5103866;28;20024;-56
2022/01/06 05:19:10;;;;;;;2.22;1.60;;;17.30;63.20;;;;;;5103291;28;20020;-57
2022/01/06 05:21:37;;;;;;;3.25;1.70;;;17.30;63.20;;;;;;5103737;28;20032;-57
2022/01/06 05:24:11;;;;;;;1.85;1.65;;;17.20;63.30;;;;;;5103535;28;20028;-56
2022/01/06 05:26:38;;;;;;;2.40;1.92;;;17.20;63.40;;;;;;5103263;28;20032;-57
2022/01/06 05:29:09;;;;;;;2.10;1.80;;;17.30;63.50;;;;;;5087448;28;20817;-55
2022/01/06 05:31:35;;;;;;;2.13;1.88;;;17.40;63.50;;;;;;5083237;28;20036;-57
2022/01/06 05:34:02;;;;;;;1.88;1.60;;;17.40;63.30;;;;;;5083121;28;20029;-57
2022/01/06 05:36:28;;;;;;;2.08;1.88;;;17.40;63.10;;;;;;5082737;28;20092;-57
2022/01/06 05:38:54;;;;;;;2.00;1.63;;;17.30;63.00;;;;;;5083074;28;20036;-56
2022/01/06 05:41:21;;;;;;;2.15;1.85;;;17.20;63.10;;;;;;5091152;28;20062;-57
2022/01/06 05:43:48;;;;;;;2.33;1.70;;;17.20;63.30;;;;;;5103536;28;20104;-56
2022/01/06 05:46:14;;;;;;;1.80;1.48;;;17.20;63.40;;;;;;5102988;28;20082;-58
2022/01/06 05:48:40;;;;;;;2.42;1.83;;;17.30;63.50;;;;;;5103048;28;20031;-58
2022/01/06 05:51:07;;;;;;;1.80;1.70;;;17.40;63.40;;;;;;5103079;28;20025;-57
2022/01/06 05:53:33;;;;;;;2.30;1.63;;;17.40;63.10;;;;;;5103226;28;20039;-57
2022/01/06 05:55:59;;;;;;;2.10;1.80;;;17.30;63.10;;;;;;5102567;28;20028;-57
2022/01/06 05:58:25;;;;;;;2.10;1.90;;;17.20;63.10;;;;;;5102018;28;20036;-57
2022/01/06 06:00:51;;;;;;;2.38;2.00;;;17.20;63.20;;;;;;5102480;28;20040;-57
2022/01/06 06:03:17;;;;;;;2.30;1.90;;;17.20;63.40;;;;;;5102975;28;20095;-57
2022/01/06 06:05:43;;;;;;;1.80;1.70;;;17.30;63.40;;;;;;5102549;28;20024;-56
2022/01/06 06:08:10;;;;;;;2.88;2.03;;;17.40;63.40;;;;;;5102620;28;20043;-57
2022/01/06 06:10:36;;;;;;;2.35;1.90;;;17.40;63.10;;;;;;5101378;28;20024;-57
2022/01/06 06:13:02;;;;;;;2.92;1.95;;;17.40;63.00;;;;;;5102716;28;20028;-58
2022/01/06 06:15:34;;;;;;;1.92;1.73;;;17.30;63.00;;;;;;5102601;28;20028;-57
2022/01/06 06:18:12;;;;;;;2.53;1.90;;;17.20;63.10;;;;;;5102697;28;20048;-56
2022/01/06 06:20:39;;;;;;;2.42;1.90;;;17.20;63.40;;;;;;5102741;28;20439;-57
2022/01/06 06:23:05;;;;;;;;;;;17.30;63.50;;;;;;5103105;28;20051;-57
2022/01/06 06:25:31;;;;;;;2.30;1.90;;;17.30;63.30;;;;;;5102239;28;19927;-57
2022/01/06 06:27:58;;;;;;;2.97;1.73;;;17.40;63.20;;;;;;5102239;28;20024;-58
2022/01/06 06:30:24;;;;;;;2.30;2.08;;;17.30;63.00;;;;;;5102612;28;20023;-57
2022/01/06 06:32:50;;;;;;;3.28;2.00;;;17.30;63.00;;;;;;5102512;28;20036;-58
2022/01/06 06:35:16;;;;;;;2.28;2.00;;;17.20;63.10;;;;;;5102505;28;20034;-56
2022/01/06 06:37:42;;;;;;;1.98;1.70;;;17.20;63.30;;;;;;5102569;28;20103;-57
2022/01/06 06:40:09;;;;;;;2.20;1.92;;;17.30;63.40;;;;;;5102088;28;20032;-57
2022/01/06 06:42:35;;;;;;;2.15;1.95;;;17.30;63.30;;;;;;5101270;28;20035;-56
2022/01/06 06:45:01;;;;;;;2.10;1.90;;;17.40;63.10;;;;;;5102631;28;20028;-57
2022/01/06 06:47:27;;;;;;;2.53;2.03;;;17.30;62.90;;;;;;5101757;28;20130;-56
2022/01/06 06:49:56;;;;;;;2.35;1.92;;;17.30;63.00;;;;;;5102489;28;20032;-57
2022/01/06 06:52:22;;;;;;;3.38;2.35;;;17.20;63.00;;;;;;5102368;28;20028;-57
2022/01/06 06:54:48;;;;;;;2.17;1.98;;;17.20;63.20;;;;;;5102574;28;20049;-57
2022/01/06 06:57:14;;;;;;;2.53;2.05;;;17.30;63.30;;;;;;5102142;28;20035;-57
2022/01/06 06:59:41;;;;;;;2.53;1.85;;;17.30;63.20;;;;;;5082158;28;20150;-58
2022/01/06 07:02:07;;;;;;;2.45;1.98;;;17.30;63.10;;;;;;5099581;28;20039;-57
2022/01/06 07:04:33;;;;;;;1.85;1.65;;;17.30;62.90;;;;;;5102411;28;20035;-57
2022/01/06 07:06:59;;;;;;;2.50;2.10;;;17.30;62.90;;;;;;5101484;28;20027;-55
2022/01/06 07:09:25;;;;;;;2.70;2.28;;;17.20;62.90;;;;;;5103168;28;20048;-54
2022/01/06 07:11:51;;;;;;;3.10;2.20;;;17.20;63.10;;;;;;5105872;28;20028;-57
2022/01/06 07:14:17;;;;;;;2.10;1.65;;;17.20;63.20;;;;;;5106249;28;20031;-58
2022/01/06 07:16:44;;;;;;;2.30;2.10;;;17.30;64.00;;;;;;5105653;28;20025;-57
2022/01/06 07:19:10;;;;;;;2.50;1.90;;;17.30;63.20;;;;;;5105914;28;20095;-56
2022/01/06 07:21:36;;;;;;;2.65;1.90;;;17.40;63.10;;;;;;5105902;28;20160;-56
2022/01/06 07:24:02;;;;;;;3.05;1.88;;;17.30;62.90;;;;;;5105933;28;20028;-57
2022/01/06 07:26:28;;;;;;;2.33;1.83;;;17.30;62.80;;;;;;5105457;28;20024;-57
2022/01/06 07:28:54;;;;;;;2.50;2.00;;;17.20;62.90;;;;;;5105073;28;20099;-56
2022/01/06 07:31:20;;;;;;;2.35;1.95;;;17.20;63.00;;;;;;5105843;28;20060;-57
2022/01/06 07:33:47;;;;;;;2.08;1.90;;;17.20;63.30;;;;;;5105929;28;20077;-56
2022/01/06 07:36:13;;;;;;;2.00;1.75;;;17.20;63.20;;;;;;5105513;28;20024;-57
2022/01/06 07:38:39;;;;;;;2.45;1.80;;;17.30;63.10;;;;;;5105575;28;20020;-57
2022/01/06 07:41:05;;;;;;;2.65;2.08;;;17.30;63.10;;;;;;5103637;28;20577;-56
2022/01/06 07:43:31;;;;;;;3.13;1.83;;;17.30;62.90;;;;;;5105389;28;20032;-57
2022/01/06 07:45:58;;;;;;;2.17;1.98;;;17.30;62.80;;;;;;5105756;28;20034;-57
2022/01/06 07:48:37;;;;;;;2.25;2.05;;;17.20;62.80;;;;;;5105597;28;20513;-57
2022/01/06 07:51:04;;;;;;;3.53;2.30;;;17.20;62.90;;;;;;5105365;28;20036;-56
2022/01/06 07:53:30;;;;;;;2.28;1.95;;;17.20;63.10;;;;;;5105526;28;20035;-57
2022/01/06 07:55:56;;;;;;;2.85;2.15;;;17.30;63.10;;;;;;5105147;28;20088;-57
2022/01/06 07:58:24;;;;;;;2.50;2.03;;;17.30;63.10;;;;;;5103949;28;20028;-57
2022/01/06 08:00:50;;;;;;;2.33;1.80;;;17.30;63.00;;;;;;5105220;28;20043;-57
2022/01/06 08:03:16;;;;;;;3.22;2.20;;;17.30;62.80;;;;;;5105038;28;20440;-57
2022/01/06 08:05:42;;;;;;;2.90;2.00;;;17.30;62.70;;;;;;5105073;28;20028;-56
2022/01/06 08:08:09;;;;;;;2.20;1.90;;;17.20;62.70;;;;;;5104707;28;20051;-57
2022/01/06 08:10:35;;;;;;;2.40;1.90;;;17.20;63.00;;;;;;5103378;28;20036;-56
2022/01/06 08:13:01;;;;;;;2.85;2.35;;;17.20;63.10;;;;;;5104971;28;20055;-57
2022/01/06 08:15:27;;;;;;;2.28;1.80;;;17.30;63.00;;;;;;5105024;28;20087;-57
2022/01/06 08:17:53;;;;;;;2.78;2.00;;;17.40;62.90;;;;;;5104731;28;20204;-57
2022/01/06 08:20:19;;;;;;;2.30;2.00;;;17.40;62.70;;;;;;5104712;28;20790;-56
2022/01/06 08:22:45;;;;;;;2.72;2.30;;;17.30;63.40;;;;;;5104343;28;20108;-57
2022/01/06 08:25:11;;;;;;;2.88;2.20;;;17.20;62.70;;;;;;5104817;28;20034;-57
2022/01/06 08:27:38;;;;;;;2.58;2.17;;;17.20;62.80;;;;;;5104505;28;20090;-54
2022/01/06 08:30:06;;;;;;;2.67;2.10;;;17.20;62.90;;;;;;5104778;28;20032;-55
2022/01/06 08:32:32;;;;;;;2.25;1.80;;;17.20;63.10;;;;;;5104819;28;20102;-56
2022/01/06 08:34:58;;;;;;;2.45;2.10;;;17.30;63.00;;;;;;5104954;28;20020;-56
2022/01/06 08:37:24;;;;;;;3.15;1.98;;;17.30;62.80;;;;;;5104358;28;20057;-57
2022/01/06 08:39:50;;;;;;;2.35;2.03;;;17.30;62.60;;;;;;5104544;28;20032;-56
2022/01/06 08:42:16;;;;;;;3.60;2.33;;;17.30;62.60;;;;;;5104272;28;20032;-57
2022/01/06 08:44:42;;;;;;;2.97;2.28;;;17.20;62.70;;;;;;5103673;28;20054;-55
2022/01/06 08:47:09;;;;;;;2.47;2.20;;;17.20;63.00;;;;;;5104382;28;20175;-56
2022/01/06 08:49:35;;;;;;;2.72;2.40;;;17.20;62.90;;;;;;5104572;28;20036;-57
2022/01/06 08:52:02;;;;;;;2.20;2.00;;;17.30;62.90;;;;;;5104477;28;20032;-56
2022/01/06 08:54:28;;;;;;;2.43;2.20;;;17.30;62.90;;;;;;5104190;28;20491;-57
2022/01/06 08:56:54;;;;;;;2.40;2.10;;;17.30;62.70;;;;;;5104130;28;20265;-55
2022/01/06 08:59:20;;;;;;;2.53;2.25;;;17.30;62.60;;;;;;5086695;28;20032;-56
2022/01/06 09:01:46;;;;;;;3.28;2.17;;;17.20;62.60;;;;;;5083747;28;20032;-54
2022/01/06 09:04:12;;;;;;;3.25;2.20;;;17.10;62.70;;;;;;5083787;28;20028;-56
2022/01/06 09:06:38;;;;;;;3.03;2.30;;;17.20;63.00;;;;;;5083974;28;20125;-57
2022/01/06 09:09:05;;;;;;;3.05;2.03;;;17.30;63.00;;;;;;5083852;28;20075;-58
2022/01/06 09:11:31;;;;;;;2.85;2.13;;;17.30;62.90;;;;;;5093803;28;20557;-57
2022/01/06 09:13:57;;;;;;;2.47;2.10;;;17.30;62.60;;;;;;5103583;28;20036;-57
2022/01/06 09:16:23;;;;;;;4.28;2.35;;;17.30;62.60;;;;;;5103857;28;20023;-58
2022/01/06 09:18:49;;;;;;;4.78;1.98;;;17.20;62.60;;;;;;5103804;28;20039;-57
2022/01/06 09:21:22;;;;;;;2.78;2.28;;;17.20;62.70;;;;;;5103705;28;20047;-57
2022/01/06 09:23:50;;;;;;;2.72;2.40;;;17.20;62.90;;;;;;5103525;28;20032;-56
2022/01/06 09:26:16;;;;;;;2.25;1.77;;;17.20;62.80;;;;;;5103592;28;20028;-58
2022/01/06 09:28:42;;;;;;;2.67;2.10;;;17.30;62.90;;;;;;5090385;28;20024;-56
2022/01/06 09:31:09;;;;;;;2.92;1.85;;;17.30;62.80;;;;;;5083492;28;20056;-58
2022/01/06 09:33:35;;;;;;;3.00;2.22;;;17.30;62.50;;;;;;5083046;28;20033;-57
2022/01/06 09:36:02;;;;;;;3.08;2.35;;;17.30;62.50;;;;;;5083446;28;20032;-57
2022/01/06 09:38:28;;;;;;;3.30;2.40;;;17.20;62.60;;;;;;5083482;28;20032;-57
2022/01/06 09:40:54;;;;;;;3.47;2.53;;;17.10;62.70;;;;;;5086601;28;20039;-57
2022/01/06 09:43:27;;;;;;;2.97;2.13;;;17.20;62.90;;;;;;5101814;28;20024;-55
2022/01/06 09:45:53;;;;;;;2.47;2.20;;;17.30;63.00;;;;;;5103334;28;20028;-56
2022/01/06 09:48:22;;;;;;;3.80;2.10;;;17.30;62.80;;;;;;5103511;28;20770;-57
2022/01/06 09:50:49;;;;;;;2.67;2.20;;;17.40;62.80;;;;;;5103321;28;20032;-57
2022/01/06 09:53:16;;;;;;;3.38;2.30;;;17.30;62.50;;;;;;5100774;28;20039;-58
2022/01/06 09:55:42;;;;;;;2.60;2.20;;;17.20;62.40;;;;;;5082811;28;20023;-57
2022/01/06 09:58:09;;;;;;;2.45;2.22;;;17.20;62.60;;;;;;5086034;28;20111;-58
2022/01/06 10:00:35;;;;;;;4.82;2.58;;;17.10;62.60;;;;;;5102993;28;20108;-57
2022/01/06 10:03:03;;;;;;;2.27;2.00;;;17.20;62.80;;;;;;5103321;28;20396;-57
2022/01/06 10:06:08;;;;;;;2.45;2.17;;;17.20;62.80;;;;;;5103017;28;20283;-58
2022/01/06 10:08:34;;;;;;;3.03;2.50;;;17.30;62.70;;;;;;5059806;28;20053;-57
2022/01/06 10:11:14;;;;;;;3.17;2.08;;;17.30;62.50;;;;;;5054435;28;20037;-56
2022/01/06 10:13:43;;;;;;;2.67;2.22;;;17.30;62.40;;;;;;5039897;28;20045;-58
2022/01/06 10:16:19;;;;;;;4.20;2.58;;;17.20;62.40;;;;;;5040019;28;20938;-57
2022/01/06 10:18:54;;;;;;;3.80;2.38;;;17.10;62.50;;;;;;5040200;28;20037;-58
2022/01/06 10:21:20;;;;;;;2.53;2.13;;;17.10;62.70;;;;;;5039874;28;20037;-58
2022/01/06 10:24:04;;;;;;;2.50;2.30;;;17.20;62.70;;;;;;5040125;28;20113;-58
2022/01/06 10:26:31;;;;;;;2.40;2.20;;;17.30;62.60;;;;;;5039983;28;20042;-57
2022/01/06 10:28:57;;;;;;;3.17;2.47;;;17.30;62.50;;;;;;5039326;28;20041;-57
2022/01/06 10:31:25;;;;;;;2.83;2.35;;;17.30;62.30;;;;;;5040036;28;20041;-57
2022/01/06 10:33:51;;;;;;;2.70;2.22;;;17.20;62.20;;;;;;5039911;28;20165;-57
2022/01/06 10:36:17;;;;;;;3.70;2.67;;;17.20;62.40;;;;;;5039629;28;20033;-57
2022/01/06 10:38:55;;;;;;;3.58;2.35;;;17.10;62.50;;;;;;5040163;28;20049;-58
2022/01/06 10:41:21;;;;;;;2.70;2.20;;;17.20;62.60;;;;;;5039786;28;20072;-58
2022/01/06 10:43:51;;;;;;;2.72;2.35;;;17.30;62.60;;;;;;5051369;28;20124;-55
2022/01/06 10:46:34;;;;;;;2.50;2.00;;;17.30;62.50;;;;;;5106806;28;20039;-57
2022/01/06 10:49:05;;;;;;;2.40;2.20;;;17.30;62.30;;;;;;5106707;28;20039;-57
2022/01/06 10:51:37;;;;;;;3.65;2.45;;;17.20;62.20;;;;;;5106879;28;20027;-56
2022/01/06 10:54:05;;;;;;;3.78;2.97;;;17.20;62.40;;;;;;5106466;28;20115;-57
2022/01/06 10:56:31;;;;;;;2.47;2.28;;;17.10;62.50;;;;;;5106561;28;20058;-57
2022/01/06 10:58:58;;;;;;;3.17;2.30;;;17.20;62.60;;;;;;5106253;28;20028;-58
2022/01/06 11:01:25;;;;;;;3.05;2.33;;;17.30;62.50;;;;;;5106829;28;20036;-57
2022/01/06 11:03:51;;;;;;;2.45;2.25;;;17.30;62.40;;;;;;5122105;28;20129;-57
2022/01/06 11:06:17;;;;;;;3.35;2.63;;;17.30;62.30;;;;;;5106416;28;20116;-58
2022/01/06 11:08:43;;;;;;;3.15;2.55;;;17.20;62.20;;;;;;5106553;28;20044;-58
2022/01/06 11:13:47;;;;;;;3.15;2.42;;;17.10;62.50;;;;;;5106257;28;20028;-57
2022/01/06 11:16:15;;;;;;;2.92;2.38;;;17.20;62.60;;;;;;5106096;28;20448;-56
2022/01/06 11:18:50;;;;;;;2.80;2.30;;;17.30;62.50;;;;;;5106269;28;20034;-57
2022/01/06 11:21:46;;;;;;;2.58;2.08;;;17.30;62.40;;;;;;5104800;28;20047;-58
2022/01/06 11:24:14;;;;;;;3.00;2.28;;;17.30;62.30;;;;;;5105252;28;20055;-57
2022/01/06 11:26:42;;;;;;;3.03;2.58;;;17.30;62.20;;;;;;5105876;28;20019;-56
2022/01/06 11:29:08;;;;;;;2.70;2.38;;;17.20;62.30;;;;;;5091351;28;20047;-57
2022/01/06 11:31:42;;;;;;;2.63;2.30;;;17.10;62.50;;;;;;5085787;28;20063;-56
2022/01/06 11:34:16;;;;;;;3.30;2.47;;;17.20;62.50;;;;;;5085938;28;20544;-58
2022/01/06 11:36:43;;;;;;;3.15;2.40;;;17.30;62.40;;;;;;5085337;28;20595;-58
2022/01/06 11:39:20;;;;;;;3.45;2.67;;;17.30;62.50;;;;;;5085630;28;20040;-58
2022/01/06 11:41:46;;;;;;;3.60;2.77;;;17.30;62.20;;;;;;5097959;28;20070;-57
2022/01/06 11:44:34;;;;;;;3.08;2.35;;;17.30;62.10;;;;;;5105888;28;20021;-57
2022/01/06 11:47:03;;;;;;;3.20;2.40;;;17.20;62.20;;;;;;5105266;28;20062;-57
2022/01/06 11:49:36;;;;;;;3.40;2.40;;;17.10;62.30;;;;;;5105810;28;20029;-58
2022/01/06 11:52:06;;;;;;;2.90;2.22;;;17.20;62.50;;;;;;5105600;28;20028;-58
2022/01/06 11:54:32;;;;;;;3.67;2.58;;;17.30;62.40;;;;;;5105635;28;20020;-57
2022/01/06 11:56:59;;;;;;;2.75;2.10;;;17.30;62.40;;;;;;5103647;28;20020;-57
2022/01/06 11:59:32;;;;;;;3.25;2.70;;;17.40;62.30;;;;;;5088079;28;20033;-57
2022/01/06 12:01:58;;;;;;;3.00;2.40;;;17.30;62.10;;;;;;5085137;28;20040;-57
2022/01/06 12:04:24;;;;;;;2.90;2.33;;;17.20;62.00;;;;;;5085271;28;20029;-57
2022/01/06 12:06:50;;;;;;;3.22;2.85;;;17.20;62.20;;;;;;5084878;28;20556;-58
2022/01/06 12:09:23;;;;;;;3.30;2.50;;;17.10;62.30;;;;;;5083606;28;20139;-57
2022/01/06 12:12:00;;;;;;;2.80;2.50;;;17.20;62.40;;;;;;5097688;28;20035;-58
2022/01/06 12:14:26;;;;;;;2.67;2.42;;;17.30;62.30;;;;;;5105433;28;20046;-58
2022/01/06 12:16:52;;;;;;;3.40;2.35;;;17.30;62.30;;;;;;5104898;28;20102;-57
2022/01/06 12:19:20;;;;;;;2.83;2.50;;;17.30;62.10;;;;;;5105165;28;20040;-57
2022/01/06 12:21:46;;;;;;;;;;;17.20;62.00;;;;;;5105555;28;20052;-57
2022/01/06 12:24:13;;;;;;;3.22;2.65;;;17.20;62.10;;;;;;5105044;28;19904;-56
2022/01/06 12:26:39;;;;;;;3.05;2.50;;;17.10;62.30;;;;;;5104669;28;20689;-58
2022/01/06 12:29:12;;;;;;;3.65;2.42;;;17.20;62.40;;;;;;5103642;28;20036;-57
2022/01/06 12:31:39;;;;;;;3.17;2.60;;;17.30;62.30;;;;;;5104774;28;20104;-58
2022/01/06 12:34:05;;;;;;;3.40;2.47;;;17.30;62.20;;;;;;5105029;28;20021;-57
2022/01/06 12:36:33;;;;;;;3.83;2.45;;;17.30;62.00;;;;;;5104540;28;20020;-57
2022/01/06 12:39:20;;;;;;;3.10;2.63;;;17.20;61.90;;;;;;5105018;28;20110;-57
2022/01/06 12:41:48;;;;;;;2.97;2.50;;;17.10;62.10;;;;;;5104525;28;20845;-57
2022/01/06 12:44:19;;;;;;;3.90;2.95;;;17.20;62.40;;;;;;5104532;28;20572;-58
2022/01/06 12:46:45;;;;;;;2.95;2.42;;;17.30;62.30;;;;;;5103500;28;20130;-57
2022/01/06 12:49:12;;;;;;;3.25;2.47;;;17.30;62.20;;;;;;5104686;28;20036;-58
2022/01/06 12:51:42;;;;;;;3.00;2.57;;;17.30;62.20;;;;;;5104550;28;20048;-57
2022/01/06 12:54:15;;;;;;;4.57;2.83;;;17.30;62.00;;;;;;5104463;28;20024;-58
2022/01/06 12:56:49;;;;;;;3.40;2.63;;;17.30;62.00;;;;;;5104074;28;20039;-58
2022/01/06 12:59:34;;;;;;;3.00;2.45;;;17.20;62.10;;;;;;5102534;28;20024;-57
2022/01/06 13:02:11;;;;;;;4.13;2.92;;;17.10;62.30;;;;;;5083972;28;20040;-58